Airport View

Enter ICAO identifier to see the current METAR for that AWOS.

KFNL for example

KHVR 010653Z AUTO 23007KT 10SM BKN100 OVC110 14/08 A2986 RMK AO2 SLP099 T01390078 402440094 $

1 Sep 2014 07:27

Frequency: 135.225

Phone: 406-265-6638

Other Area AWOS: KS71 - CWOE - K79S - CWEH

TAF KHVR 010520Z 0106/0206 VRB06KT P6SM VCSH SCT070 OVC090 FM011300 25011KT P6SM BKN120 FM012000 24014KT P6SM SCT120